Main page
METAR-TAF:

METAR-TAF

Airports :

RAF Leeming

Leeming, England

latitude: 54-18N, longitude: 001-32W, elevation: 40 m

Current weather observation

The report was made 21 minutes ago, at 04:50 UTC
Wind 2 kt from the East
Temperature 5°C
Humidity 100%
Pressure 994 hPa
Visibility 10 km or more

METAR: EGXE 240450Z AUTO 10002KT 9999 NCD 05/05 Q0994

Time: 06:11 (05:11 UTC)

Forecast

The report was made 15 hours and 33 minutes ago, at 13:38 UTC
Forecast valid from 23 at 15 UTC to 23 at 18 UTC
Wind 11 kt from the North
Visibility: 9000 m
Broken clouds at a height of 1000 ft
light rain
Temporary
from 23 at 15 UTC to 23 at 18 UTC
Visibility: 4000 m
Broken clouds at a height of 600 ft
light rain, drizzle
Probability 30% :
Temporary
from 23 at 15 UTC to 23 at 18 UTC
Visibility: 3000 m
Scattered clouds at a height of 400 ft
Broken clouds at a height of 800 ft
rain, drizzle

TAF: EGXE 231338Z 2315/2318 35011KT 9000 -RA BKN010 TEMPO 2315/2318 4000 -RADZ BKN006 PROB30 TEMPO 2315/2318 3000 RADZ SCT004 BKN008

Weather observations and forecasts of more than 4000 airports (METAR and TAF reports).

The available stations are represented by yellow and red dots on the map.

Hover mouse over dot to see the name of the station.

Then click to see weather observations and forecasts.

To change the map : click on the green buttons with a black cross to zoom in, on the green button with a dash to zoom out, or on the green arrows for adjacent maps.


METAR-TAF: